createdAt,value
2022-12-27T00:00:29.000Z,6.62
2022-12-27T00:01:30.000Z,6.56
2022-12-27T00:02:29.000Z,6.60
2022-12-27T00:03:29.000Z,6.60
2022-12-27T00:04:29.000Z,6.60
2022-12-27T00:05:29.000Z,6.55
2022-12-27T00:06:29.000Z,6.55
2022-12-27T00:07:28.000Z,6.54
2022-12-27T00:08:28.000Z,6.52
2022-12-27T00:09:29.000Z,6.53
2022-12-27T00:10:28.000Z,6.53
2022-12-27T00:11:29.000Z,6.49
2022-12-27T00:12:28.000Z,6.47
2022-12-27T00:13:29.000Z,6.44
2022-12-27T00:14:29.000Z,6.43
2022-12-27T00:15:30.000Z,6.46
2022-12-27T00:16:29.000Z,6.43
2022-12-27T00:17:29.000Z,6.42
2022-12-27T00:18:28.000Z,6.41
2022-12-27T00:19:28.000Z,6.41
2022-12-27T00:20:28.000Z,6.41
2022-12-27T00:21:29.000Z,6.41
2022-12-27T00:22:28.000Z,6.41
2022-12-27T00:23:32.000Z,6.41
2022-12-27T00:24:28.000Z,6.41
2022-12-27T00:25:28.000Z,6.40
2022-12-27T00:26:31.000Z,6.39
2022-12-27T00:27:28.000Z,6.38
2022-12-27T00:28:30.000Z,6.36
2022-12-27T00:29:28.000Z,6.36
2022-12-27T00:30:30.000Z,6.35
2022-12-27T00:31:30.000Z,6.35
2022-12-27T00:32:28.000Z,6.33
2022-12-27T00:33:31.000Z,6.32
2022-12-27T00:34:28.000Z,6.30
2022-12-27T00:35:28.000Z,6.31
2022-12-27T00:36:29.000Z,6.29
2022-12-27T00:37:28.000Z,6.23
2022-12-27T00:38:30.000Z,6.22
2022-12-27T00:39:28.000Z,6.18
2022-12-27T00:40:28.000Z,6.19
2022-12-27T00:41:30.000Z,6.19
2022-12-27T00:42:28.000Z,6.14
2022-12-27T00:43:29.000Z,6.14
2022-12-27T00:44:28.000Z,6.15
2022-12-27T00:45:29.000Z,6.15
2022-12-27T00:46:29.000Z,6.09
2022-12-27T00:47:28.000Z,6.10
2022-12-27T00:48:29.000Z,6.05
2022-12-27T00:49:29.000Z,6.07
2022-12-27T00:50:29.000Z,6.07
2022-12-27T00:51:28.000Z,6.07
2022-12-27T00:52:28.000Z,6.08
2022-12-27T00:53:29.000Z,6.03
2022-12-27T00:54:29.000Z,6.04
2022-12-27T00:55:29.000Z,6.08
2022-12-27T00:56:29.000Z,6.10
2022-12-27T00:57:28.000Z,6.08
2022-12-27T00:58:28.000Z,6.06
2022-12-27T00:59:29.000Z,6.04
2022-12-27T01:00:29.000Z,5.99
2022-12-27T01:01:32.000Z,5.99
2022-12-27T01:02:29.000Z,5.99
2022-12-27T01:03:28.000Z,5.97
2022-12-27T01:04:29.000Z,5.95
2022-12-27T01:05:29.000Z,5.92
2022-12-27T01:06:32.000Z,5.86
2022-12-27T01:07:29.000Z,5.84
2022-12-27T01:08:29.000Z,5.82
2022-12-27T01:09:29.000Z,5.79
2022-12-27T01:10:30.000Z,5.75
2022-12-27T01:11:29.000Z,5.78
2022-12-27T01:12:29.000Z,5.78
2022-12-27T01:13:29.000Z,5.74
2022-12-27T01:14:29.000Z,5.76
2022-12-27T01:15:29.000Z,5.75
2022-12-27T01:16:30.000Z,5.74
2022-12-27T01:17:29.000Z,5.74
2022-12-27T01:18:29.000Z,5.76
2022-12-27T01:19:29.000Z,5.72
2022-12-27T01:20:29.000Z,5.74
2022-12-27T01:21:29.000Z,5.77
2022-12-27T01:22:29.000Z,5.76
2022-12-27T01:23:30.000Z,5.76
2022-12-27T01:24:30.000Z,5.79
2022-12-27T01:25:29.000Z,5.76
2022-12-27T01:26:29.000Z,5.76
2022-12-27T01:27:29.000Z,5.76
2022-12-27T01:28:29.000Z,5.73
2022-12-27T01:29:29.000Z,5.73
2022-12-27T01:30:29.000Z,5.73
2022-12-27T01:31:29.000Z,5.72
2022-12-27T01:32:32.000Z,5.73
2022-12-27T01:33:29.000Z,5.74
2022-12-27T01:34:29.000Z,5.73
2022-12-27T01:35:29.000Z,5.73
2022-12-27T01:36:29.000Z,5.72
2022-12-27T01:37:29.000Z,5.73
2022-12-27T01:38:29.000Z,5.69
2022-12-27T01:39:28.000Z,5.70
2022-12-27T01:40:28.000Z,5.72
2022-12-27T01:41:37.000Z,5.72
2022-12-27T01:42:34.000Z,5.73
2022-12-27T01:43:36.000Z,5.73
2022-12-27T01:44:42.000Z,5.73
2022-12-27T01:45:34.000Z,5.73
2022-12-27T01:46:29.000Z,5.72
2022-12-27T01:47:50.000Z,5.70
2022-12-27T01:48:29.000Z,5.71
2022-12-27T01:49:29.000Z,5.68
2022-12-27T01:50:37.000Z,5.68
2022-12-27T01:51:29.000Z,5.66
2022-12-27T01:52:37.000Z,5.66
2022-12-27T01:53:33.000Z,5.65
2022-12-27T01:54:28.000Z,5.62
2022-12-27T01:55:41.000Z,5.60
2022-12-27T01:56:29.000Z,5.59
2022-12-27T01:57:29.000Z,5.60
2022-12-27T01:58:34.000Z,5.60
2022-12-27T01:59:30.000Z,5.60
2022-12-27T02:00:29.000Z,5.60
2022-12-27T02:01:34.000Z,5.59
2022-12-27T02:02:29.000Z,5.56
2022-12-27T02:03:34.000Z,5.56
2022-12-27T02:04:30.000Z,5.54
2022-12-27T02:05:29.000Z,5.55
2022-12-27T02:06:32.000Z,5.53
2022-12-27T02:07:41.000Z,5.53
2022-12-27T02:08:40.000Z,5.53
2022-12-27T02:09:39.000Z,5.52
2022-12-27T02:10:29.000Z,5.49
2022-12-27T02:11:50.000Z,5.46
2022-12-27T02:12:29.000Z,5.46
2022-12-27T02:13:32.000Z,5.47
2022-12-27T02:14:43.000Z,5.48
2022-12-27T02:15:29.000Z,5.44
2022-12-27T02:16:29.000Z,5.41
2022-12-27T02:17:31.000Z,5.42
2022-12-27T02:18:28.000Z,5.41
2022-12-27T02:19:47.000Z,5.43
2022-12-27T02:20:47.000Z,5.42
2022-12-27T02:21:43.000Z,5.42
2022-12-27T02:22:39.000Z,5.45
2022-12-27T02:23:44.000Z,5.44
2022-12-27T02:24:38.000Z,5.47
2022-12-27T02:25:49.000Z,5.44
2022-12-27T02:26:39.000Z,5.44
2022-12-27T02:27:46.000Z,5.43
2022-12-27T02:28:38.000Z,5.43
2022-12-27T02:29:43.000Z,5.46
2022-12-27T02:30:31.000Z,5.45
2022-12-27T02:31:59.000Z,5.48
2022-12-27T02:32:49.000Z,5.45
2022-12-27T02:33:34.000Z,5.47
2022-12-27T02:34:37.000Z,5.44
2022-12-27T02:35:38.000Z,5.45
2022-12-27T02:36:33.000Z,5.43
2022-12-27T02:37:31.000Z,5.43
2022-12-27T02:38:32.000Z,5.46
2022-12-27T02:39:34.000Z,5.42
2022-12-27T02:40:38.000Z,5.43
2022-12-27T02:41:34.000Z,5.42
2022-12-27T02:42:34.000Z,5.43
2022-12-27T02:43:34.000Z,5.41
2022-12-27T02:44:35.000Z,5.40
2022-12-27T02:45:41.000Z,5.38
2022-12-27T02:46:34.000Z,5.39
2022-12-27T02:47:35.000Z,5.38
2022-12-27T02:48:34.000Z,5.38
2022-12-27T02:49:40.000Z,5.38
2022-12-27T02:50:49.000Z,5.36
2022-12-27T02:52:01.000Z,5.37
2022-12-27T02:52:57.000Z,5.34
2022-12-27T02:53:48.000Z,5.32
2022-12-27T02:54:39.000Z,5.30
2022-12-27T02:55:39.000Z,5.30
2022-12-27T02:56:57.000Z,5.28
2022-12-27T02:57:52.000Z,5.26
2022-12-27T02:58:39.000Z,5.25
2022-12-27T02:59:46.000Z,5.27
2022-12-27T03:00:57.000Z,5.24
2022-12-27T03:01:44.000Z,5.26
2022-12-27T03:02:47.000Z,5.24
2022-12-27T03:03:52.000Z,5.24
2022-12-27T03:04:52.000Z,5.24
2022-12-27T03:05:53.000Z,5.23
2022-12-27T03:07:00.000Z,5.22
2022-12-27T03:07:40.000Z,5.21
2022-12-27T03:08:40.000Z,5.21
2022-12-27T03:09:44.000Z,5.17
2022-12-27T03:10:45.000Z,5.18
2022-12-27T03:11:46.000Z,5.18
2022-12-27T03:12:44.000Z,5.18
2022-12-27T03:13:57.000Z,5.17
2022-12-27T03:14:41.000Z,5.17
2022-12-27T03:15:43.000Z,5.16
2022-12-27T03:16:37.000Z,5.15
2022-12-27T03:17:35.000Z,5.13
2022-12-27T03:18:42.000Z,5.10
2022-12-27T03:19:43.000Z,5.10
2022-12-27T03:20:37.000Z,5.06
2022-12-27T03:21:41.000Z,5.06
2022-12-27T03:22:37.000Z,5.05
2022-12-27T03:23:37.000Z,5.08
2022-12-27T03:24:38.000Z,5.06
2022-12-27T03:25:33.000Z,5.04
2022-12-27T03:26:32.000Z,5.05
2022-12-27T03:27:33.000Z,5.03
2022-12-27T03:28:35.000Z,5.02
2022-12-27T03:29:34.000Z,4.99
2022-12-27T03:30:37.000Z,5.00
2022-12-27T03:31:40.000Z,4.97
2022-12-27T03:32:39.000Z,4.93
2022-12-27T03:33:31.000Z,4.88
2022-12-27T03:34:39.000Z,4.91
2022-12-27T03:35:35.000Z,4.88
2022-12-27T03:36:34.000Z,4.83
2022-12-27T03:37:38.000Z,4.84
2022-12-27T03:38:45.000Z,4.83
2022-12-27T03:39:35.000Z,4.80
2022-12-27T03:40:39.000Z,4.79
2022-12-27T03:41:40.000Z,4.79
2022-12-27T03:42:40.000Z,4.78
2022-12-27T03:43:30.000Z,4.74
2022-12-27T03:44:29.000Z,4.76
2022-12-27T03:45:54.000Z,4.73
2022-12-27T03:46:33.000Z,4.72
2022-12-27T03:47:49.000Z,4.72
2022-12-27T03:48:36.000Z,4.70
2022-12-27T03:49:40.000Z,4.69
2022-12-27T03:50:42.000Z,4.69
2022-12-27T03:51:37.000Z,4.68
2022-12-27T03:52:41.000Z,4.69
2022-12-27T03:53:39.000Z,4.69
2022-12-27T03:54:33.000Z,4.70
2022-12-27T03:55:29.000Z,4.68
2022-12-27T03:56:29.000Z,4.66
2022-12-27T03:57:29.000Z,4.67
2022-12-27T03:58:29.000Z,4.66
2022-12-27T03:59:29.000Z,4.65
2022-12-27T04:00:29.000Z,4.67
2022-12-27T04:01:29.000Z,4.67
2022-12-27T04:02:29.000Z,4.67
2022-12-27T04:03:29.000Z,4.64
2022-12-27T04:04:29.000Z,4.65
2022-12-27T04:05:29.000Z,4.65
2022-12-27T04:06:29.000Z,4.64
2022-12-27T04:07:29.000Z,4.65
2022-12-27T04:08:34.000Z,4.63
2022-12-27T04:09:34.000Z,4.63
2022-12-27T04:10:34.000Z,4.64
2022-12-27T04:11:34.000Z,4.63
2022-12-27T04:12:34.000Z,4.64
2022-12-27T04:13:33.000Z,4.64
2022-12-27T04:14:34.000Z,4.63
2022-12-27T04:15:34.000Z,4.63
2022-12-27T04:16:34.000Z,4.64
2022-12-27T04:17:34.000Z,4.63
2022-12-27T04:18:33.000Z,4.65
2022-12-27T04:19:33.000Z,4.64
2022-12-27T04:20:34.000Z,4.64
2022-12-27T04:21:34.000Z,4.63
2022-12-27T04:22:34.000Z,4.62
2022-12-27T04:23:34.000Z,4.62
2022-12-27T04:24:34.000Z,4.58
2022-12-27T04:25:34.000Z,4.60
2022-12-27T04:26:33.000Z,4.55
2022-12-27T04:27:34.000Z,4.55
2022-12-27T04:28:34.000Z,4.55
2022-12-27T04:29:33.000Z,4.53
2022-12-27T04:30:34.000Z,4.53
2022-12-27T04:31:34.000Z,4.54
2022-12-27T04:32:34.000Z,4.51
2022-12-27T04:33:34.000Z,4.50
2022-12-27T04:34:33.000Z,4.50
2022-12-27T04:35:28.000Z,4.49
2022-12-27T04:36:28.000Z,4.47
2022-12-27T04:37:28.000Z,4.47
2022-12-27T04:38:28.000Z,4.45
2022-12-27T04:39:29.000Z,4.45
2022-12-27T04:40:34.000Z,4.46
2022-12-27T04:41:33.000Z,4.45
2022-12-27T04:42:34.000Z,4.44
2022-12-27T04:43:33.000Z,4.44
2022-12-27T04:44:33.000Z,4.44
2022-12-27T04:45:33.000Z,4.41
2022-12-27T04:46:33.000Z,4.42
2022-12-27T04:47:34.000Z,4.40
2022-12-27T04:48:33.000Z,4.37
2022-12-27T04:49:34.000Z,4.42
2022-12-27T04:50:33.000Z,4.40
2022-12-27T04:51:33.000Z,4.40
2022-12-27T04:52:33.000Z,4.44
2022-12-27T04:53:33.000Z,4.42
2022-12-27T04:54:34.000Z,4.42
2022-12-27T04:55:29.000Z,4.42
2022-12-27T04:56:28.000Z,4.43
2022-12-27T04:57:28.000Z,4.42
2022-12-27T04:58:29.000Z,4.42
2022-12-27T04:59:33.000Z,4.38
2022-12-27T05:00:34.000Z,4.40
2022-12-27T05:01:34.000Z,4.42
2022-12-27T05:02:28.000Z,4.42
2022-12-27T05:03:28.000Z,4.43
2022-12-27T05:04:31.000Z,4.44
2022-12-27T05:05:28.000Z,4.45
2022-12-27T05:06:28.000Z,4.47
2022-12-27T05:07:35.000Z,4.48
2022-12-27T05:08:34.000Z,4.44
2022-12-27T05:09:33.000Z,4.41
2022-12-27T05:10:34.000Z,4.40
2022-12-27T05:11:33.000Z,4.39
2022-12-27T05:12:34.000Z,4.41
2022-12-27T05:13:34.000Z,4.40
2022-12-27T05:14:28.000Z,4.37
2022-12-27T05:15:28.000Z,4.36
2022-12-27T05:16:37.000Z,4.39
2022-12-27T05:17:28.000Z,4.37
2022-12-27T05:18:28.000Z,4.37
2022-12-27T05:19:28.000Z,4.40
2022-12-27T05:20:28.000Z,4.37
2022-12-27T05:21:28.000Z,4.36
2022-12-27T05:22:33.000Z,4.37
2022-12-27T05:23:34.000Z,4.36
2022-12-27T05:24:33.000Z,4.36
2022-12-27T05:25:38.000Z,4.35
2022-12-27T05:26:29.000Z,4.35
2022-12-27T05:27:28.000Z,4.32
2022-12-27T05:28:29.000Z,4.32
2022-12-27T05:29:34.000Z,4.32
2022-12-27T05:30:31.000Z,4.31
2022-12-27T05:31:29.000Z,4.32
2022-12-27T05:32:28.000Z,4.32
2022-12-27T05:33:29.000Z,4.31
2022-12-27T05:34:28.000Z,4.31
2022-12-27T05:35:29.000Z,4.30
2022-12-27T05:36:28.000Z,4.28
2022-12-27T05:37:28.000Z,4.30
2022-12-27T05:38:28.000Z,4.27
2022-12-27T05:39:28.000Z,4.27
2022-12-27T05:40:29.000Z,4.26
2022-12-27T05:41:28.000Z,4.26
2022-12-27T05:42:29.000Z,4.26
2022-12-27T05:43:29.000Z,4.25
2022-12-27T05:44:28.000Z,4.26
2022-12-27T05:45:29.000Z,4.26
2022-12-27T05:46:29.000Z,4.26
2022-12-27T05:47:29.000Z,4.24
2022-12-27T05:48:29.000Z,4.24
2022-12-27T05:49:28.000Z,4.24
2022-12-27T05:50:28.000Z,4.24
2022-12-27T05:51:28.000Z,4.25
2022-12-27T05:52:29.000Z,4.26
2022-12-27T05:53:29.000Z,4.25
2022-12-27T05:54:28.000Z,4.26
2022-12-27T05:55:29.000Z,4.25
2022-12-27T05:56:29.000Z,4.26
2022-12-27T05:57:29.000Z,4.25
2022-12-27T05:58:29.000Z,4.25
2022-12-27T05:59:28.000Z,4.26
2022-12-27T06:00:29.000Z,4.23
2022-12-27T06:01:29.000Z,4.26
2022-12-27T06:02:29.000Z,4.26
2022-12-27T06:03:28.000Z,4.26
2022-12-27T06:04:28.000Z,4.25
2022-12-27T06:05:29.000Z,4.25
2022-12-27T06:06:29.000Z,4.27
2022-12-27T06:07:29.000Z,4.26
2022-12-27T06:08:29.000Z,4.26
2022-12-27T06:09:29.000Z,4.24
2022-12-27T06:10:29.000Z,4.22
2022-12-27T06:11:28.000Z,4.22
2022-12-27T06:12:29.000Z,4.25
2022-12-27T06:13:29.000Z,4.25
2022-12-27T06:14:28.000Z,4.24
2022-12-27T06:15:29.000Z,4.22
2022-12-27T06:16:28.000Z,4.24
2022-12-27T06:17:28.000Z,4.23
2022-12-27T06:18:31.000Z,4.23
2022-12-27T06:19:28.000Z,4.25
2022-12-27T06:20:29.000Z,4.24
2022-12-27T06:21:28.000Z,4.23
2022-12-27T06:22:28.000Z,4.25
2022-12-27T06:23:29.000Z,4.22
2022-12-27T06:24:28.000Z,4.24
2022-12-27T06:25:28.000Z,4.25
2022-12-27T06:26:29.000Z,4.21
2022-12-27T06:27:28.000Z,4.24
2022-12-27T06:28:28.000Z,4.22
2022-12-27T06:29:28.000Z,4.24
2022-12-27T06:30:28.000Z,4.21
2022-12-27T06:31:29.000Z,4.23
2022-12-27T06:32:30.000Z,4.22
2022-12-27T06:33:30.000Z,4.20
2022-12-27T06:34:28.000Z,4.20
2022-12-27T06:35:28.000Z,4.21
2022-12-27T06:36:29.000Z,4.20
2022-12-27T06:37:29.000Z,4.20
2022-12-27T06:38:28.000Z,4.19
2022-12-27T06:39:28.000Z,4.20
2022-12-27T06:40:28.000Z,4.20
2022-12-27T06:41:28.000Z,4.20
2022-12-27T06:42:29.000Z,4.20
2022-12-27T06:43:28.000Z,4.19
2022-12-27T06:44:28.000Z,4.20
2022-12-27T06:45:28.000Z,4.19
2022-12-27T06:46:28.000Z,4.20
2022-12-27T06:47:28.000Z,4.19
2022-12-27T06:48:28.000Z,4.20
2022-12-27T06:49:28.000Z,4.18
2022-12-27T06:50:28.000Z,4.20
2022-12-27T06:51:28.000Z,4.20
2022-12-27T06:52:28.000Z,4.20
2022-12-27T06:53:28.000Z,4.19
2022-12-27T06:54:28.000Z,4.19
2022-12-27T06:55:28.000Z,4.19
2022-12-27T06:56:28.000Z,4.19
2022-12-27T06:57:28.000Z,4.20
2022-12-27T06:58:28.000Z,4.20
2022-12-27T06:59:28.000Z,4.17
2022-12-27T07:00:28.000Z,4.19
2022-12-27T07:01:28.000Z,4.20
2022-12-27T07:02:28.000Z,4.19
2022-12-27T07:03:28.000Z,4.20
2022-12-27T07:04:28.000Z,4.23
2022-12-27T07:05:28.000Z,4.23
2022-12-27T07:06:29.000Z,4.22
2022-12-27T07:07:28.000Z,4.24
2022-12-27T07:08:28.000Z,4.24
2022-12-27T07:09:28.000Z,4.24
2022-12-27T07:10:28.000Z,4.26
2022-12-27T07:11:34.000Z,4.25
2022-12-27T07:12:28.000Z,4.25
2022-12-27T07:13:32.000Z,4.26
2022-12-27T07:14:29.000Z,4.27
2022-12-27T07:15:29.000Z,4.26
2022-12-27T07:16:29.000Z,4.27
2022-12-27T07:17:29.000Z,4.25
2022-12-27T07:18:29.000Z,4.25
2022-12-27T07:19:29.000Z,4.24
2022-12-27T07:20:29.000Z,4.25
2022-12-27T07:21:29.000Z,4.26
2022-12-27T07:22:29.000Z,4.28
2022-12-27T07:23:29.000Z,4.27
2022-12-27T07:24:32.000Z,4.26
2022-12-27T07:25:29.000Z,4.29
2022-12-27T07:26:29.000Z,4.27
2022-12-27T07:27:32.000Z,4.29
2022-12-27T07:28:29.000Z,4.28
2022-12-27T07:29:29.000Z,4.29
2022-12-27T07:30:29.000Z,4.26
2022-12-27T07:31:31.000Z,4.30
2022-12-27T07:32:29.000Z,4.31
2022-12-27T07:33:29.000Z,4.32
2022-12-27T07:34:29.000Z,4.35
2022-12-27T07:35:29.000Z,4.36
2022-12-27T07:36:36.000Z,4.37
2022-12-27T07:37:29.000Z,4.40
2022-12-27T07:38:29.000Z,4.42
2022-12-27T07:39:29.000Z,4.42
2022-12-27T07:40:29.000Z,4.44
2022-12-27T07:41:29.000Z,4.44
2022-12-27T07:42:29.000Z,4.45
2022-12-27T07:43:31.000Z,4.44
2022-12-27T07:44:29.000Z,4.42
2022-12-27T07:45:28.000Z,4.42
2022-12-27T07:46:28.000Z,4.43
2022-12-27T07:47:28.000Z,4.44
2022-12-27T07:48:28.000Z,4.42
2022-12-27T07:49:29.000Z,4.43
2022-12-27T07:50:29.000Z,4.44
2022-12-27T07:51:29.000Z,4.41
2022-12-27T07:52:28.000Z,4.40
2022-12-27T07:53:29.000Z,4.41
2022-12-27T07:54:28.000Z,4.40
2022-12-27T07:55:28.000Z,4.40
2022-12-27T07:56:29.000Z,4.40
2022-12-27T07:57:28.000Z,4.40
2022-12-27T07:58:28.000Z,4.41
2022-12-27T07:59:28.000Z,4.40
2022-12-27T08:00:29.000Z,4.40
2022-12-27T08:01:33.000Z,4.38
2022-12-27T08:02:29.000Z,4.40
2022-12-27T08:03:29.000Z,4.38
2022-12-27T08:04:30.000Z,4.37
2022-12-27T08:05:29.000Z,4.38
2022-12-27T08:06:31.000Z,4.38
2022-12-27T08:07:29.000Z,4.37
2022-12-27T08:08:38.000Z,4.37
2022-12-27T08:09:32.000Z,4.36
2022-12-27T08:10:28.000Z,4.37
2022-12-27T08:11:29.000Z,4.36
2022-12-27T08:12:29.000Z,4.37
2022-12-27T08:13:28.000Z,4.36
2022-12-27T08:14:29.000Z,4.38
2022-12-27T08:15:29.000Z,4.37
2022-12-27T08:16:28.000Z,4.38
2022-12-27T08:17:28.000Z,4.38
2022-12-27T08:18:28.000Z,4.39
2022-12-27T08:19:29.000Z,4.41
2022-12-27T08:20:28.000Z,4.42
2022-12-27T08:21:28.000Z,4.43
2022-12-27T08:22:28.000Z,4.43
2022-12-27T08:23:28.000Z,4.44
2022-12-27T08:24:29.000Z,4.46
2022-12-27T08:25:29.000Z,4.48
2022-12-27T08:26:28.000Z,4.45
2022-12-27T08:27:28.000Z,4.48
2022-12-27T08:28:30.000Z,4.49
2022-12-27T08:29:28.000Z,4.49
2022-12-27T08:30:29.000Z,4.52
2022-12-27T08:31:29.000Z,4.53
2022-12-27T08:32:28.000Z,4.55
2022-12-27T08:33:28.000Z,4.58
2022-12-27T08:34:29.000Z,4.60
2022-12-27T08:35:29.000Z,4.58
2022-12-27T08:36:28.000Z,4.61
2022-12-27T08:37:28.000Z,4.63
2022-12-27T08:38:28.000Z,4.63
2022-12-27T08:39:28.000Z,4.66
2022-12-27T08:40:28.000Z,4.66
2022-12-27T08:41:28.000Z,4.67
2022-12-27T08:42:28.000Z,4.68
2022-12-27T08:43:29.000Z,4.71
2022-12-27T08:44:28.000Z,4.72
2022-12-27T08:45:28.000Z,4.74
2022-12-27T08:46:29.000Z,4.74
2022-12-27T08:47:28.000Z,4.75
2022-12-27T08:48:30.000Z,4.78
2022-12-27T08:49:28.000Z,4.79
2022-12-27T08:50:29.000Z,4.79
2022-12-27T08:51:29.000Z,4.84
2022-12-27T08:52:29.000Z,4.84
2022-12-27T08:53:29.000Z,4.83
2022-12-27T08:54:29.000Z,4.85
2022-12-27T08:55:29.000Z,4.88
2022-12-27T08:56:29.000Z,4.89
2022-12-27T08:57:29.000Z,4.89
2022-12-27T08:58:29.000Z,4.93
2022-12-27T08:59:28.000Z,4.91
2022-12-27T09:00:30.000Z,4.93
2022-12-27T09:01:29.000Z,4.94
2022-12-27T09:02:28.000Z,4.96
2022-12-27T09:03:29.000Z,4.97
2022-12-27T09:04:28.000Z,4.97
2022-12-27T09:05:28.000Z,4.98
2022-12-27T09:06:29.000Z,4.99
2022-12-27T09:07:29.000Z,5.00
2022-12-27T09:08:28.000Z,5.02
2022-12-27T09:09:29.000Z,5.02
2022-12-27T09:10:28.000Z,5.03
2022-12-27T09:11:31.000Z,5.04
2022-12-27T09:12:31.000Z,5.03
2022-12-27T09:13:29.000Z,5.06
2022-12-27T09:14:29.000Z,5.05
2022-12-27T09:15:29.000Z,5.05
2022-12-27T09:16:29.000Z,5.08
2022-12-27T09:17:28.000Z,5.10
2022-12-27T09:18:28.000Z,5.11
2022-12-27T09:19:28.000Z,5.12
2022-12-27T09:20:28.000Z,5.14
2022-12-27T09:21:30.000Z,5.15
2022-12-27T09:22:28.000Z,5.18
2022-12-27T09:23:28.000Z,5.17
2022-12-27T09:24:28.000Z,5.20
2022-12-27T09:25:28.000Z,5.21
2022-12-27T09:26:29.000Z,5.22
2022-12-27T09:27:28.000Z,5.24
2022-12-27T09:28:28.000Z,5.25
2022-12-27T09:29:28.000Z,5.27
2022-12-27T09:30:28.000Z,5.28
2022-12-27T09:31:29.000Z,5.29
2022-12-27T09:32:28.000Z,5.31
2022-12-27T09:33:29.000Z,5.34
2022-12-27T09:34:28.000Z,5.36
2022-12-27T09:35:28.000Z,5.36
2022-12-27T09:36:28.000Z,5.39
2022-12-27T09:37:29.000Z,5.41
2022-12-27T09:38:29.000Z,5.41
2022-12-27T09:39:28.000Z,5.44
2022-12-27T09:40:28.000Z,5.46
2022-12-27T09:41:38.000Z,5.47
2022-12-27T09:43:05.000Z,5.47
2022-12-27T09:43:42.000Z,5.51
2022-12-27T09:44:38.000Z,5.52
2022-12-27T09:45:37.000Z,5.52
2022-12-27T09:46:39.000Z,5.55
2022-12-27T09:47:56.000Z,5.55
2022-12-27T09:48:33.000Z,5.57
2022-12-27T09:49:37.000Z,5.60
2022-12-27T09:50:49.000Z,5.60
2022-12-27T09:51:37.000Z,5.64
2022-12-27T09:52:45.000Z,5.65
2022-12-27T09:53:42.000Z,5.68
2022-12-27T09:54:43.000Z,5.71
2022-12-27T09:55:49.000Z,5.70
2022-12-27T09:56:33.000Z,5.72
2022-12-27T09:57:36.000Z,5.73
2022-12-27T09:58:39.000Z,5.75
2022-12-27T09:59:36.000Z,5.78
2022-12-27T10:00:29.000Z,5.80
2022-12-27T10:01:35.000Z,5.81
2022-12-27T10:02:29.000Z,5.86
2022-12-27T10:03:29.000Z,5.85
2022-12-27T10:04:34.000Z,5.86
2022-12-27T10:05:33.000Z,5.87
2022-12-27T10:06:49.000Z,5.91
2022-12-27T10:07:52.000Z,5.92
2022-12-27T10:08:40.000Z,5.93
2022-12-27T10:09:52.000Z,5.95
2022-12-27T10:10:52.000Z,5.96
2022-12-27T10:11:51.000Z,5.97
2022-12-27T10:12:39.000Z,5.97
2022-12-27T10:13:44.000Z,5.98
2022-12-27T10:14:45.000Z,5.99
2022-12-27T10:15:40.000Z,6.03
2022-12-27T10:16:47.000Z,6.04
2022-12-27T10:17:53.000Z,6.04
2022-12-27T10:18:51.000Z,6.05
2022-12-27T10:19:57.000Z,6.09
2022-12-27T10:20:39.000Z,6.10
2022-12-27T10:21:33.000Z,6.13
2022-12-27T10:22:45.000Z,6.12
2022-12-27T10:23:32.000Z,6.17
2022-12-27T10:24:39.000Z,6.19
2022-12-27T10:25:29.000Z,6.23
2022-12-27T10:26:29.000Z,6.26
2022-12-27T10:27:29.000Z,6.28
2022-12-27T10:28:44.000Z,6.28
2022-12-27T10:29:30.000Z,6.33
2022-12-27T10:30:29.000Z,6.35
2022-12-27T10:31:30.000Z,6.37
2022-12-27T10:32:28.000Z,6.40
2022-12-27T10:33:32.000Z,6.41
2022-12-27T10:34:29.000Z,6.43
2022-12-27T10:35:29.000Z,6.47
2022-12-27T10:36:29.000Z,6.55
2022-12-27T10:37:29.000Z,6.56
2022-12-27T10:38:33.000Z,6.61
2022-12-27T10:39:33.000Z,6.65
2022-12-27T10:40:39.000Z,6.67
2022-12-27T10:41:40.000Z,6.73
2022-12-27T10:42:35.000Z,6.76
2022-12-27T10:43:35.000Z,6.80
2022-12-27T10:44:29.000Z,6.83
2022-12-27T10:45:36.000Z,6.87
2022-12-27T10:46:31.000Z,6.87
2022-12-27T10:47:28.000Z,6.92
2022-12-27T10:48:28.000Z,6.94
2022-12-27T10:49:31.000Z,6.96
2022-12-27T10:50:28.000Z,6.98
2022-12-27T10:51:34.000Z,7.00
2022-12-27T10:52:32.000Z,7.06
2022-12-27T10:53:36.000Z,7.11
2022-12-27T10:54:28.000Z,7.10
2022-12-27T10:55:35.000Z,7.14
2022-12-27T10:56:34.000Z,7.16
2022-12-27T10:57:31.000Z,7.17
2022-12-27T10:58:36.000Z,7.20
2022-12-27T10:59:28.000Z,7.20
2022-12-27T11:00:28.000Z,7.17
2022-12-27T11:01:29.000Z,7.20
2022-12-27T11:02:28.000Z,7.22
2022-12-27T11:03:29.000Z,7.23
2022-12-27T11:04:29.000Z,7.28
2022-12-27T11:05:31.000Z,7.29
2022-12-27T11:06:28.000Z,7.31
2022-12-27T11:07:31.000Z,7.35
2022-12-27T11:08:29.000Z,7.36
2022-12-27T11:09:31.000Z,7.36
2022-12-27T11:10:29.000Z,7.33
2022-12-27T11:11:28.000Z,7.35
2022-12-27T11:12:30.000Z,7.39
2022-12-27T11:13:28.000Z,7.40
2022-12-27T11:14:28.000Z,7.41
2022-12-27T11:15:32.000Z,7.43
2022-12-27T11:16:34.000Z,7.43
2022-12-27T11:17:39.000Z,7.45
2022-12-27T11:18:32.000Z,7.50
2022-12-27T11:19:28.000Z,7.50
2022-12-27T11:20:32.000Z,7.45
2022-12-27T11:21:29.000Z,7.50
2022-12-27T11:22:28.000Z,7.48
2022-12-27T11:23:33.000Z,7.51
2022-12-27T11:24:28.000Z,7.51
2022-12-27T11:25:29.000Z,7.52
2022-12-27T11:26:37.000Z,7.51
2022-12-27T11:27:28.000Z,7.56
2022-12-27T11:28:35.000Z,7.59
2022-12-27T11:29:30.000Z,7.61
2022-12-27T11:30:33.000Z,7.66
2022-12-27T11:31:35.000Z,7.61
2022-12-27T11:32:29.000Z,7.64
2022-12-27T11:33:34.000Z,7.63
2022-12-27T11:34:32.000Z,7.63
2022-12-27T11:35:29.000Z,7.60
2022-12-27T11:36:35.000Z,7.63
2022-12-27T11:37:28.000Z,7.58
2022-12-27T11:38:31.000Z,7.56
2022-12-27T11:39:37.000Z,7.61
2022-12-27T11:40:34.000Z,7.61
2022-12-27T11:41:43.000Z,7.65
2022-12-27T11:42:39.000Z,7.71
2022-12-27T11:43:37.000Z,7.78
2022-12-27T11:44:36.000Z,7.82
2022-12-27T11:45:38.000Z,7.82
2022-12-27T11:46:38.000Z,7.76
2022-12-27T11:47:48.000Z,7.75
2022-12-27T11:48:34.000Z,7.76
2022-12-27T11:49:52.000Z,7.75
2022-12-27T11:50:56.000Z,7.76
2022-12-27T11:51:39.000Z,7.77
2022-12-27T11:52:38.000Z,7.76
2022-12-27T11:53:38.000Z,7.76
2022-12-27T11:54:50.000Z,7.77
2022-12-27T11:55:45.000Z,7.77
2022-12-27T11:56:31.000Z,7.81
2022-12-27T11:57:51.000Z,7.84
2022-12-27T11:58:45.000Z,7.91
2022-12-27T11:59:39.000Z,7.90
2022-12-27T12:00:40.000Z,7.88
2022-12-27T12:01:48.000Z,7.83
2022-12-27T12:03:05.000Z,7.82
2022-12-27T12:03:39.000Z,7.75
2022-12-27T12:04:52.000Z,7.75
2022-12-27T12:06:01.000Z,7.73
2022-12-27T12:06:45.000Z,7.68
2022-12-27T12:07:49.000Z,7.64
2022-12-27T12:08:43.000Z,7.59
2022-12-27T12:09:43.000Z,7.57
2022-12-27T12:10:52.000Z,7.56
2022-12-27T12:11:43.000Z,7.52
2022-12-27T12:12:38.000Z,7.49
2022-12-27T12:13:38.000Z,7.48
2022-12-27T12:14:44.000Z,7.47
2022-12-27T12:15:38.000Z,7.47
2022-12-27T12:16:52.000Z,7.43
2022-12-27T12:17:54.000Z,7.39
2022-12-27T12:18:38.000Z,7.37
2022-12-27T12:19:38.000Z,7.36
2022-12-27T12:20:38.000Z,7.36
2022-12-27T12:21:38.000Z,7.34
2022-12-27T12:22:38.000Z,7.31
2022-12-27T12:23:51.000Z,7.34
2022-12-27T12:24:40.000Z,7.33
2022-12-27T12:25:40.000Z,7.31
2022-12-27T12:26:47.000Z,7.32
2022-12-27T12:27:39.000Z,7.28
2022-12-27T12:28:46.000Z,7.23
2022-12-27T12:29:51.000Z,7.23
2022-12-27T12:30:38.000Z,7.23
2022-12-27T12:31:42.000Z,7.21
2022-12-27T12:32:38.000Z,7.21
2022-12-27T12:33:44.000Z,7.21
2022-12-27T12:34:49.000Z,7.21
2022-12-27T12:35:38.000Z,7.20
2022-12-27T12:36:45.000Z,7.18
2022-12-27T12:37:38.000Z,7.18
2022-12-27T12:38:38.000Z,7.19
2022-12-27T12:39:38.000Z,7.18
2022-12-27T12:40:44.000Z,7.19
2022-12-27T12:41:42.000Z,7.21
2022-12-27T12:42:38.000Z,7.21
2022-12-27T12:43:38.000Z,7.18
2022-12-27T12:44:51.000Z,7.18
2022-12-27T12:45:41.000Z,7.18
2022-12-27T12:46:52.000Z,7.21
2022-12-27T12:47:38.000Z,7.19
2022-12-27T12:48:44.000Z,7.21
2022-12-27T12:49:38.000Z,7.21
2022-12-27T12:50:38.000Z,7.21
2022-12-27T12:51:38.000Z,7.22
2022-12-27T12:52:42.000Z,7.22
2022-12-27T12:53:40.000Z,7.22
2022-12-27T12:54:54.000Z,7.23
2022-12-27T12:55:38.000Z,7.27
2022-12-27T12:56:38.000Z,7.28
2022-12-27T12:57:41.000Z,7.31
2022-12-27T12:58:40.000Z,7.34
2022-12-27T12:59:45.000Z,7.36
2022-12-27T13:00:52.000Z,7.40
2022-12-27T13:01:38.000Z,7.41
2022-12-27T13:02:54.000Z,7.47
2022-12-27T13:03:48.000Z,7.52
2022-12-27T13:04:38.000Z,7.57
2022-12-27T13:05:38.000Z,7.60
2022-12-27T13:06:50.000Z,7.64
2022-12-27T13:07:41.000Z,7.65
2022-12-27T13:08:38.000Z,7.65
2022-12-27T13:09:51.000Z,7.70
2022-12-27T13:10:38.000Z,7.71
2022-12-27T13:11:40.000Z,7.76
2022-12-27T13:12:41.000Z,7.77
2022-12-27T13:13:56.000Z,7.78
2022-12-27T13:14:38.000Z,7.80
2022-12-27T13:15:47.000Z,7.80
2022-12-27T13:16:48.000Z,7.82
2022-12-27T13:17:49.000Z,7.82
2022-12-27T13:18:38.000Z,7.82